createdAt,value
2019-03-29T00:08:29.334Z,14.89
2019-03-29T00:11:18.227Z,14.86
2019-03-29T00:13:59.885Z,14.64
2019-03-29T00:16:48.751Z,14.48
2019-03-29T00:19:37.624Z,14.35
2019-03-29T00:22:26.473Z,14.40
2019-03-29T00:25:15.271Z,14.49
2019-03-29T00:28:04.098Z,14.39
2019-03-29T00:30:52.904Z,14.11
2019-03-29T00:33:41.735Z,14.24
2019-03-29T00:36:30.532Z,14.30
2019-03-29T00:39:19.345Z,12.98
2019-03-29T00:42:08.169Z,14.37
2019-03-29T00:48:04.731Z,14.17
2019-03-29T00:50:53.529Z,13.98
2019-03-29T00:53:42.341Z,13.58
2019-03-29T00:56:31.147Z,13.56
2019-03-29T00:59:19.978Z,13.60
2019-03-29T01:02:08.785Z,13.61
2019-03-29T01:04:57.605Z,13.52
2019-03-29T01:07:46.426Z,12.10
2019-03-29T01:10:35.219Z,13.29
2019-03-29T01:13:17.150Z,13.24
2019-03-29T01:16:05.965Z,12.95
2019-03-29T01:18:54.768Z,10.99
2019-03-29T01:21:43.606Z,12.45
2019-03-29T01:24:32.401Z,11.24
2019-03-29T01:27:21.217Z,12.20
2019-03-29T01:30:10.293Z,11.96
2019-03-29T01:32:59.231Z,11.73
2019-03-29T01:35:49.715Z,10.51
2019-03-29T01:38:38.526Z,12.14
2019-03-29T01:41:27.375Z,12.12
2019-03-29T01:44:16.148Z,11.23
2019-03-29T01:47:05.304Z,12.03
2019-03-29T01:49:54.110Z,11.84
2019-03-29T01:52:42.937Z,11.89
2019-03-29T01:55:31.734Z,11.65
2019-03-29T01:58:20.551Z,11.63
2019-03-29T02:01:09.356Z,11.60
2019-03-29T02:03:58.203Z,11.69
2019-03-29T02:06:47.023Z,11.47
2019-03-29T02:09:35.849Z,11.40
2019-03-29T02:12:24.648Z,11.50
2019-03-29T02:15:09.527Z,10.08
2019-03-29T02:17:58.349Z,11.57
2019-03-29T02:20:47.143Z,11.50
2019-03-29T02:23:35.940Z,10.08
2019-03-29T02:26:24.778Z,11.26
2019-03-29T02:29:13.587Z,11.16
2019-03-29T02:32:02.419Z,11.18
2019-03-29T02:34:51.252Z,10.22
2019-03-29T02:37:40.046Z,11.07
2019-03-29T02:40:28.874Z,11.13
2019-03-29T02:43:17.681Z,10.98
2019-03-29T02:46:06.490Z,9.58
2019-03-29T02:48:55.298Z,10.94
2019-03-29T02:51:44.384Z,10.79
2019-03-29T02:54:33.189Z,10.80
2019-03-29T02:57:22.032Z,10.80
2019-03-29T03:03:25.932Z,10.49
2019-03-29T03:06:33.914Z,8.43
2019-03-29T03:09:22.708Z,9.72
2019-03-29T03:12:02.509Z,9.26
2019-03-29T03:14:51.321Z,9.92
2019-03-29T03:17:59.135Z,9.89
2019-03-29T03:20:48.023Z,9.79
2019-03-29T03:23:36.825Z,9.64
2019-03-29T03:26:25.642Z,9.53
2019-03-29T03:29:14.429Z,9.48
2019-03-29T03:32:03.366Z,8.95
2019-03-29T03:37:41.665Z,9.57
2019-03-29T03:40:30.478Z,8.22
2019-03-29T03:43:19.275Z,9.43
2019-03-29T03:46:08.097Z,9.28
2019-03-29T03:48:56.916Z,9.32
2019-03-29T03:51:45.726Z,9.43
2019-03-29T03:57:28.637Z,9.36
2019-03-29T04:00:40.083Z,9.24
2019-03-29T04:03:28.956Z,9.11
2019-03-29T04:06:17.760Z,9.16
2019-03-29T04:09:06.991Z,9.25
2019-03-29T04:11:48.228Z,9.22
2019-03-29T04:14:37.033Z,8.14
2019-03-29T04:17:25.866Z,9.19
2019-03-29T04:20:14.672Z,7.64
2019-03-29T04:23:03.490Z,8.85
2019-03-29T04:25:52.284Z,7.18
2019-03-29T04:28:41.147Z,8.49
2019-03-29T04:31:29.923Z,8.28
2019-03-29T04:34:18.742Z,8.19
2019-03-29T04:37:07.543Z,8.33
2019-03-29T04:40:06.883Z,8.28
2019-03-29T04:42:46.872Z,8.37
2019-03-29T04:45:35.678Z,8.26
2019-03-29T04:48:24.502Z,6.91
2019-03-29T04:51:13.296Z,7.81
2019-03-29T04:54:02.120Z,8.45
2019-03-29T04:56:50.922Z,8.50
2019-03-29T04:59:39.724Z,8.38
2019-03-29T05:02:28.543Z,8.39
2019-03-29T05:05:17.424Z,8.33
2019-03-29T05:08:06.224Z,8.35
2019-03-29T05:10:55.776Z,8.27
2019-03-29T05:13:37.443Z,7.54
2019-03-29T05:16:26.262Z,7.94
2019-03-29T05:19:15.058Z,7.93
2019-03-29T05:22:03.874Z,7.94
2019-03-29T05:24:52.669Z,7.99
2019-03-29T05:27:41.487Z,7.99
2019-03-29T05:30:30.284Z,7.89
2019-03-29T05:36:34.011Z,7.54
2019-03-29T05:39:22.803Z,7.72
2019-03-29T05:42:11.615Z,7.80
2019-03-29T05:45:00.451Z,7.84
2019-03-29T05:47:49.228Z,8.04
2019-03-29T05:50:38.045Z,8.05
2019-03-29T05:53:26.842Z,8.11
2019-03-29T05:56:15.669Z,8.26
2019-03-29T05:59:04.536Z,8.40
2019-03-29T06:01:53.344Z,8.44
2019-03-29T06:04:42.142Z,8.50
2019-03-29T06:07:30.963Z,8.63
2019-03-29T06:10:19.799Z,8.78
2019-03-29T06:13:08.595Z,8.90
2019-03-29T06:15:49.993Z,9.05
2019-03-29T06:18:38.787Z,9.15
2019-03-29T06:21:27.600Z,9.24
2019-03-29T06:24:16.412Z,9.31
2019-03-29T06:27:05.206Z,9.43
2019-03-29T06:29:54.014Z,9.48
2019-03-29T06:32:42.811Z,8.19
2019-03-29T06:35:52.546Z,9.67
2019-03-29T06:39:02.266Z,9.79
2019-03-29T06:41:51.131Z,9.61
2019-03-29T06:44:39.965Z,9.47
2019-03-29T06:47:28.777Z,9.74
2019-03-29T06:50:17.574Z,9.99
2019-03-29T06:53:06.398Z,8.87
2019-03-29T06:55:59.218Z,10.28
2019-03-29T06:58:46.461Z,8.71
2019-03-29T07:01:35.258Z,9.93
2019-03-29T07:04:43.091Z,10.39
2019-03-29T07:07:31.906Z,10.35
2019-03-29T07:10:39.751Z,10.57
2019-03-29T07:13:28.583Z,10.78
2019-03-29T07:16:10.406Z,10.90
2019-03-29T07:19:18.248Z,11.01
2019-03-29T07:22:07.155Z,11.21
2019-03-29T07:24:55.963Z,11.39
2019-03-29T07:27:51.884Z,11.60
2019-03-29T07:30:35.313Z,11.73
2019-03-29T07:33:24.129Z,11.91
2019-03-29T07:39:08.414Z,12.22
2019-03-29T07:41:57.217Z,12.32
2019-03-29T07:44:46.032Z,12.42
2019-03-29T07:47:34.829Z,12.58
2019-03-29T07:50:23.644Z,12.67
2019-03-29T07:53:12.501Z,11.25
2019-03-29T07:56:01.327Z,12.98
2019-03-29T07:58:50.130Z,13.09
2019-03-29T08:01:38.953Z,13.16
2019-03-29T08:04:27.752Z,13.15
2019-03-29T08:07:26.602Z,13.28
2019-03-29T08:10:07.274Z,13.46
2019-03-29T08:12:56.106Z,13.51
2019-03-29T08:15:45.178Z,13.68
2019-03-29T08:18:27.040Z,13.88
2019-03-29T08:27:17.505Z,14.19
2019-03-29T08:33:21.575Z,14.66
2019-03-29T08:36:10.388Z,14.86
2019-03-29T08:38:59.224Z,14.88
2019-03-29T08:41:59.521Z,13.83
2019-03-29T08:44:38.601Z,15.36
2019-03-29T08:47:27.421Z,14.44
2019-03-29T08:50:35.316Z,14.48
2019-03-29T08:53:27.316Z,15.63
2019-03-29T08:56:14.760Z,15.80
2019-03-29T08:59:03.579Z,16.04
2019-03-29T09:01:52.399Z,15.89
2019-03-29T09:04:41.222Z,15.48
2019-03-29T09:07:50.955Z,16.15
2019-03-29T09:10:39.859Z,16.15
2019-03-29T09:13:28.658Z,16.80
2019-03-29T09:16:10.123Z,16.86
2019-03-29T09:18:58.924Z,17.01
2019-03-29T09:21:47.827Z,17.20
2019-03-29T09:24:36.962Z,15.97
2019-03-29T09:27:25.763Z,17.29
2019-03-29T09:30:14.761Z,17.08
2019-03-29T09:33:03.571Z,17.58
2019-03-29T09:35:52.394Z,17.52
2019-03-29T09:38:43.691Z,17.74
2019-03-29T09:41:31.753Z,16.95
2019-03-29T09:44:20.588Z,17.75
2019-03-29T09:47:09.427Z,16.61
2019-03-29T09:49:58.219Z,17.62
2019-03-29T09:52:47.047Z,17.24
2019-03-29T09:55:35.856Z,16.49
2019-03-29T09:58:24.677Z,17.93
2019-03-29T10:01:13.515Z,17.61
2019-03-29T10:04:02.303Z,17.90
2019-03-29T10:06:51.352Z,18.21
2019-03-29T10:09:40.147Z,17.38
2019-03-29T10:12:42.271Z,18.74
2019-03-29T10:15:19.516Z,17.70
2019-03-29T10:18:00.930Z,18.91
2019-03-29T10:20:49.680Z,18.92
2019-03-29T10:26:52.303Z,19.12
2019-03-29T10:29:41.127Z,19.01
2019-03-29T10:32:29.949Z,19.22
2019-03-29T10:35:18.756Z,19.51
2019-03-29T10:38:07.577Z,19.35
2019-03-29T10:40:56.418Z,18.95
2019-03-29T10:43:45.221Z,18.98
2019-03-29T10:46:53.062Z,19.24
2019-03-29T10:49:41.871Z,19.35
2019-03-29T10:52:30.693Z,20.14
2019-03-29T10:55:19.499Z,20.69
2019-03-29T10:58:09.841Z,20.97
2019-03-29T11:00:58.874Z,21.40
2019-03-29T11:03:47.685Z,21.01
2019-03-29T11:09:44.329Z,20.72
2019-03-29T11:12:33.121Z,20.45
2019-03-29T11:15:21.942Z,19.73
2019-03-29T11:18:03.371Z,20.23
2019-03-29T11:21:11.234Z,19.94
2019-03-29T11:24:09.087Z,20.45
2019-03-29T11:26:57.975Z,21.07
2019-03-29T11:33:15.384Z,21.26
2019-03-29T11:36:04.291Z,21.08
2019-03-29T11:38:53.322Z,22.61
2019-03-29T11:41:42.576Z,21.90
2019-03-29T11:44:31.624Z,22.73
2019-03-29T11:47:20.441Z,23.11
2019-03-29T11:50:09.338Z,23.45
2019-03-29T11:52:58.129Z,22.76
2019-03-29T11:55:46.951Z,23.68
2019-03-29T11:58:35.781Z,22.94
2019-03-29T12:01:24.609Z,24.23
2019-03-29T12:04:13.405Z,23.59
2019-03-29T12:07:03.690Z,24.10
2019-03-29T12:09:52.751Z,23.08
2019-03-29T12:12:41.571Z,24.10
2019-03-29T12:15:30.386Z,24.07
2019-03-29T12:18:12.358Z,24.20
2019-03-29T12:21:01.186Z,24.60
2019-03-29T12:23:49.984Z,23.80
2019-03-29T12:26:38.936Z,23.25
2019-03-29T12:29:27.816Z,24.45
2019-03-29T12:32:16.655Z,24.56
2019-03-29T12:35:26.505Z,24.69
2019-03-29T12:38:15.300Z,24.74
2019-03-29T12:41:04.197Z,24.73
2019-03-29T12:43:55.962Z,25.39
2019-03-29T12:46:43.589Z,25.92
2019-03-29T12:49:32.418Z,26.12
2019-03-29T12:52:21.213Z,25.79
2019-03-29T12:55:10.171Z,26.00
2019-03-29T12:57:58.995Z,26.26
2019-03-29T13:00:47.824Z,27.26
2019-03-29T13:03:36.642Z,27.58
2019-03-29T13:06:25.475Z,27.56
2019-03-29T13:09:14.289Z,27.92
2019-03-29T13:12:03.115Z,27.97
2019-03-29T13:14:51.932Z,28.49
2019-03-29T13:17:33.510Z,28.75
2019-03-29T13:20:22.330Z,27.26
2019-03-29T13:23:11.137Z,28.54
2019-03-29T13:25:59.962Z,28.03
2019-03-29T13:28:48.769Z,28.84
2019-03-29T13:31:37.596Z,29.36
2019-03-29T13:34:26.406Z,28.96
2019-03-29T13:37:15.226Z,29.34
2019-03-29T13:40:24.092Z,28.55
2019-03-29T13:43:12.950Z,29.51
2019-03-29T13:46:01.752Z,30.23
2019-03-29T13:48:50.578Z,29.33
2019-03-29T13:51:39.373Z,29.84
2019-03-29T13:54:28.203Z,28.65
2019-03-29T13:57:17.077Z,29.97
2019-03-29T14:00:26.932Z,30.54
2019-03-29T14:03:15.790Z,29.96
2019-03-29T14:06:04.850Z,30.72
2019-03-29T14:08:53.689Z,31.24
2019-03-29T14:11:42.562Z,31.50
2019-03-29T14:14:38.135Z,30.91
2019-03-29T14:17:15.078Z,32.63
2019-03-29T14:23:32.328Z,34.43
2019-03-29T14:26:21.137Z,33.34
2019-03-29T14:29:28.980Z,34.22
2019-03-29T14:32:17.781Z,34.40
2019-03-29T14:35:27.508Z,35.24
2019-03-29T14:38:16.337Z,34.80
2019-03-29T14:41:05.128Z,34.56
2019-03-29T14:43:53.963Z,34.10
2019-03-29T14:46:42.775Z,33.73
2019-03-29T14:49:31.597Z,32.38
2019-03-29T14:52:20.411Z,31.10
2019-03-29T14:55:09.472Z,32.68
2019-03-29T14:57:50.913Z,31.95
2019-03-29T15:01:00.654Z,32.11
2019-03-29T15:03:49.513Z,33.03
2019-03-29T15:06:38.354Z,33.20
2019-03-29T15:09:27.160Z,32.37
2019-03-29T15:12:15.996Z,33.76
2019-03-29T15:15:26.099Z,33.10
2019-03-29T15:18:14.909Z,33.72
2019-03-29T15:21:04.016Z,33.25
2019-03-29T15:23:52.827Z,32.37
2019-03-29T15:26:41.653Z,32.64
2019-03-29T15:29:30.450Z,32.58
2019-03-29T15:32:19.278Z,33.22
2019-03-29T15:35:27.241Z,32.73
2019-03-29T15:38:16.065Z,32.79
2019-03-29T15:41:04.872Z,32.88
2019-03-29T15:46:47.728Z,32.13
2019-03-29T15:49:36.560Z,32.43
2019-03-29T15:52:25.388Z,33.16
2019-03-29T15:55:14.214Z,32.66
2019-03-29T15:58:03.044Z,33.78
2019-03-29T16:00:51.858Z,33.77
2019-03-29T16:03:40.666Z,33.90
2019-03-29T16:06:29.476Z,34.00
2019-03-29T16:09:18.292Z,32.28
2019-03-29T16:12:07.097Z,32.39
2019-03-29T16:14:55.917Z,33.15
2019-03-29T16:17:44.741Z,33.46
2019-03-29T16:20:33.550Z,34.32
2019-03-29T16:23:22.367Z,34.70
2019-03-29T16:26:11.182Z,33.71
2019-03-29T16:29:00.067Z,34.09
2019-03-29T16:31:48.894Z,34.36
2019-03-29T16:34:37.771Z,34.59
2019-03-29T16:37:26.619Z,34.48
2019-03-29T16:40:15.559Z,34.50
2019-03-29T16:43:04.426Z,34.54
2019-03-29T16:49:01.098Z,34.10
2019-03-29T16:51:49.931Z,34.11
2019-03-29T16:54:38.828Z,33.48
2019-03-29T16:57:20.551Z,33.75
2019-03-29T17:00:30.318Z,32.84
2019-03-29T17:03:19.216Z,33.06
2019-03-29T17:06:08.110Z,33.06
2019-03-29T17:08:56.910Z,33.04
2019-03-29T17:11:45.863Z,32.97
2019-03-29T17:14:34.726Z,32.72
2019-03-29T17:17:23.577Z,31.95
2019-03-29T17:20:32.601Z,30.70
2019-03-29T17:23:21.458Z,28.18
2019-03-29T17:26:10.357Z,27.06
2019-03-29T17:28:59.173Z,26.14
2019-03-29T17:31:47.976Z,26.18
2019-03-29T17:34:36.803Z,25.41
2019-03-29T17:37:25.602Z,24.63
2019-03-29T17:40:34.367Z,24.08
2019-03-29T17:43:23.192Z,23.57
2019-03-29T17:46:16.722Z,23.09
2019-03-29T17:49:02.550Z,22.80
2019-03-29T17:54:59.116Z,22.15
2019-03-29T17:57:40.909Z,21.81
2019-03-29T18:03:39.127Z,21.33
2019-03-29T18:06:27.943Z,20.47
2019-03-29T18:09:16.771Z,19.28
2019-03-29T18:12:05.557Z,20.62
2019-03-29T18:14:54.399Z,18.89
2019-03-29T18:17:43.221Z,19.83
2019-03-29T18:20:32.115Z,19.23
2019-03-29T18:23:20.945Z,17.51
2019-03-29T18:26:09.779Z,18.55
2019-03-29T18:28:58.585Z,18.43
2019-03-29T18:34:42.031Z,18.32
2019-03-29T18:37:25.451Z,18.08
2019-03-29T18:40:33.642Z,17.91
2019-03-29T18:43:22.455Z,17.00
2019-03-29T18:46:11.257Z,17.28
2019-03-29T18:49:00.081Z,17.24
2019-03-29T18:51:48.890Z,16.72
2019-03-29T18:54:37.713Z,17.14
2019-03-29T18:57:26.534Z,14.93
2019-03-29T19:00:36.294Z,16.24
2019-03-29T19:03:44.111Z,16.01
2019-03-29T19:06:32.952Z,16.04
2019-03-29T19:09:21.750Z,15.63
2019-03-29T19:15:25.795Z,15.35
2019-03-29T19:18:14.628Z,15.69
2019-03-29T19:24:11.187Z,15.68
2019-03-29T19:26:59.999Z,15.64
2019-03-29T19:29:48.808Z,15.61
2019-03-29T19:32:37.634Z,15.38
2019-03-29T19:35:26.431Z,15.44
2019-03-29T19:38:15.251Z,15.42
2019-03-29T19:40:56.744Z,15.33
2019-03-29T19:43:45.565Z,15.34
2019-03-29T19:46:34.451Z,15.21
2019-03-29T19:49:23.244Z,15.13
2019-03-29T19:52:12.225Z,15.08
2019-03-29T19:55:01.480Z,14.79
2019-03-29T19:57:51.603Z,14.68
2019-03-29T20:01:01.322Z,14.77
2019-03-29T20:03:50.132Z,13.31
2019-03-29T20:06:38.938Z,14.53
2019-03-29T20:09:27.759Z,14.58
2019-03-29T20:12:16.633Z,14.57
2019-03-29T20:15:06.621Z,14.44
2019-03-29T20:17:55.525Z,14.44
2019-03-29T20:20:44.418Z,14.29
2019-03-29T20:26:40.972Z,13.64
2019-03-29T20:29:29.768Z,13.45
2019-03-29T20:32:18.589Z,13.32
2019-03-29T20:35:07.738Z,13.29
2019-03-29T20:40:45.386Z,13.28
2019-03-29T20:43:34.213Z,13.22
2019-03-29T20:46:23.066Z,13.14
2019-03-29T20:49:11.922Z,11.43
2019-03-29T20:52:00.861Z,12.75
2019-03-29T20:54:49.765Z,12.27
2019-03-29T20:57:31.824Z,12.70
2019-03-29T21:00:21.040Z,12.34
2019-03-29T21:03:09.890Z,12.62
2019-03-29T21:05:58.800Z,11.50
2019-03-29T21:08:47.623Z,11.05
2019-03-29T21:11:36.467Z,12.27
2019-03-29T21:14:25.306Z,11.82
2019-03-29T21:16:54.826Z,11.87
2019-03-29T21:19:43.756Z,11.60
2019-03-29T21:22:32.647Z,10.09
2019-03-29T21:25:21.522Z,10.41
2019-03-29T21:28:29.386Z,11.58
2019-03-29T21:31:18.262Z,11.55
2019-03-29T21:34:07.070Z,11.48
2019-03-29T21:36:55.945Z,10.02
2019-03-29T21:39:44.807Z,11.44
2019-03-29T21:42:33.687Z,11.44
2019-03-29T21:45:28.457Z,11.50
2019-03-29T21:48:27.973Z,10.45
2019-03-29T21:51:03.880Z,11.30
2019-03-29T21:53:52.760Z,11.23
2019-03-29T21:56:41.607Z,9.33
2019-03-29T21:59:30.435Z,10.01
2019-03-29T22:02:21.510Z,10.60
2019-03-29T22:05:10.517Z,9.91
2019-03-29T22:08:00.522Z,10.72
2019-03-29T22:10:49.380Z,10.52
2019-03-29T22:13:38.282Z,10.46
2019-03-29T22:22:29.591Z,10.50
2019-03-29T22:25:18.548Z,10.54
2019-03-29T22:28:07.396Z,10.45
2019-03-29T22:30:56.277Z,10.47
2019-03-29T22:33:45.111Z,9.88
2019-03-29T22:36:33.922Z,10.37
2019-03-29T22:39:22.721Z,10.34
2019-03-29T22:42:03.931Z,10.32
2019-03-29T22:44:52.729Z,9.23
2019-03-29T22:47:41.546Z,8.59
2019-03-29T22:50:30.345Z,10.04
2019-03-29T22:53:19.165Z,10.13
2019-03-29T22:56:07.986Z,10.21
2019-03-29T22:58:49.666Z,10.19
2019-03-29T23:01:59.402Z,10.06
2019-03-29T23:04:48.192Z,9.41
2019-03-29T23:07:37.003Z,9.78
2019-03-29T23:10:25.804Z,9.56
2019-03-29T23:13:14.617Z,9.53
2019-03-29T23:16:03.410Z,9.64
2019-03-29T23:19:05.505Z,9.36
2019-03-29T23:21:42.749Z,9.18
2019-03-29T23:24:31.569Z,9.39
2019-03-29T23:27:20.384Z,9.43
2019-03-29T23:30:09.535Z,9.57
2019-03-29T23:32:58.353Z,9.50
2019-03-29T23:35:47.206Z,9.36
2019-03-29T23:38:36.038Z,9.52
2019-03-29T23:41:17.979Z,9.31
2019-03-29T23:44:06.845Z,9.22
2019-03-29T23:46:55.665Z,9.17
2019-03-29T23:49:44.463Z,9.08
2019-03-29T23:52:33.275Z,8.64
2019-03-29T23:55:22.064Z,9.04
2019-03-29T23:58:10.887Z,8.84
